createdAt,value
2018-12-27T00:00:34.722Z,97.34
2018-12-27T00:01:34.714Z,97.66
2018-12-27T00:02:34.701Z,97.66
2018-12-27T00:03:34.691Z,97.34
2018-12-27T00:04:34.701Z,96.94
2018-12-27T00:05:34.667Z,97.34
2018-12-27T00:06:34.661Z,97.45
2018-12-27T00:07:34.649Z,97.14
2018-12-27T00:08:34.636Z,97.14
2018-12-27T00:09:34.633Z,97.60
2018-12-27T00:10:34.614Z,97.66
2018-12-27T00:11:34.605Z,97.39
2018-12-27T00:12:34.593Z,97.25
2018-12-27T00:13:34.582Z,97.04
2018-12-27T00:14:34.605Z,97.34
2018-12-27T00:15:34.561Z,97.66
2018-12-27T00:16:34.550Z,97.45
2018-12-27T00:17:34.539Z,97.14
2018-12-27T00:18:34.527Z,97.55
2018-12-27T00:19:34.521Z,97.60
2018-12-27T00:20:34.516Z,97.50
2018-12-27T00:21:34.508Z,97.50
2018-12-27T00:22:34.484Z,97.60
2018-12-27T00:23:34.475Z,97.50
2018-12-27T00:24:34.463Z,97.19
2018-12-27T00:25:34.465Z,97.50
2018-12-27T00:26:34.442Z,97.60
2018-12-27T00:27:34.430Z,97.60
2018-12-27T00:28:34.420Z,97.71
2018-12-27T00:29:34.409Z,97.45
2018-12-27T00:30:34.408Z,97.50
2018-12-27T00:31:34.388Z,97.71
2018-12-27T00:32:34.376Z,97.60
2018-12-27T00:33:34.377Z,97.60
2018-12-27T00:34:34.355Z,97.50
2018-12-27T00:35:34.363Z,97.50
2018-12-27T00:36:34.334Z,97.50
2018-12-27T00:37:34.322Z,97.39
2018-12-27T00:38:34.312Z,97.39
2018-12-27T00:39:34.301Z,97.29
2018-12-27T00:40:34.300Z,97.50
2018-12-27T00:41:34.281Z,97.60
2018-12-27T00:42:34.268Z,97.60
2018-12-27T00:43:34.258Z,97.50
2018-12-27T00:44:34.249Z,97.60
2018-12-27T00:45:34.246Z,97.50
2018-12-27T00:46:34.226Z,97.50
2018-12-27T00:47:34.216Z,97.50
2018-12-27T00:48:34.204Z,97.29
2018-12-27T00:49:34.193Z,97.08
2018-12-27T00:50:34.190Z,97.25
2018-12-27T00:51:34.171Z,97.08
2018-12-27T00:52:34.164Z,97.29
2018-12-27T00:53:34.150Z,97.19
2018-12-27T00:54:34.142Z,97.50
2018-12-27T00:55:34.136Z,97.76
2018-12-27T00:56:34.117Z,97.50
2018-12-27T00:57:34.107Z,97.50
2018-12-27T00:58:34.098Z,97.60
2018-12-27T00:59:34.088Z,96.67
2018-12-27T01:00:34.109Z,97.25
2018-12-27T01:01:34.063Z,97.08
2018-12-27T01:02:34.053Z,97.08
2018-12-27T01:03:34.041Z,97.50
2018-12-27T01:04:34.038Z,97.81
2018-12-27T01:05:34.019Z,97.29
2018-12-27T01:06:34.020Z,97.08
2018-12-27T01:07:33.998Z,97.04
2018-12-27T01:08:33.987Z,97.50
2018-12-27T01:09:33.977Z,97.60
2018-12-27T01:10:33.965Z,97.60
2018-12-27T01:11:33.968Z,97.81
2018-12-27T01:12:33.947Z,97.60
2018-12-27T01:13:33.941Z,97.60
2018-12-27T01:14:34.000Z,97.50
2018-12-27T01:15:33.913Z,97.39
2018-12-27T01:16:33.912Z,97.29
2018-12-27T01:17:33.890Z,97.39
2018-12-27T01:18:33.880Z,97.50
2018-12-27T01:19:33.872Z,97.60
2018-12-27T01:20:33.858Z,97.39
2018-12-27T01:21:33.856Z,97.60
2018-12-27T01:22:33.836Z,97.50
2018-12-27T01:23:33.828Z,97.60
2018-12-27T01:24:33.815Z,97.50
2018-12-27T01:25:33.803Z,97.50
2018-12-27T01:26:33.802Z,97.29
2018-12-27T01:27:33.782Z,96.67
2018-12-27T01:28:33.775Z,96.67
2018-12-27T01:29:33.761Z,97.19
2018-12-27T01:30:33.750Z,97.29
2018-12-27T01:31:33.748Z,96.77
2018-12-27T01:32:33.728Z,96.67
2018-12-27T01:33:33.722Z,96.88
2018-12-27T01:34:33.707Z,96.47
2018-12-27T01:35:33.696Z,96.88
2018-12-27T01:36:33.722Z,96.67
2018-12-27T01:37:33.674Z,97.19
2018-12-27T01:38:33.663Z,97.71
2018-12-27T01:39:33.652Z,97.60
2018-12-27T01:40:33.642Z,97.08
2018-12-27T01:41:33.631Z,96.67
2018-12-27T01:42:33.628Z,96.56
2018-12-27T01:43:33.610Z,96.67
2018-12-27T01:44:33.600Z,96.67
2018-12-27T01:45:33.588Z,96.77
2018-12-27T01:46:33.577Z,96.47
2018-12-27T01:47:33.575Z,96.77
2018-12-27T01:48:33.561Z,96.98
2018-12-27T01:49:33.545Z,96.47
2018-12-27T01:50:33.539Z,96.67
2018-12-27T01:51:33.523Z,97.08
2018-12-27T01:52:33.521Z,97.19
2018-12-27T01:53:33.503Z,96.67
2018-12-27T01:54:33.491Z,96.67
2018-12-27T01:55:33.480Z,96.47
2018-12-27T01:56:33.469Z,96.47
2018-12-27T01:57:33.467Z,97.29
2018-12-27T01:58:33.456Z,96.47
2018-12-27T01:59:33.438Z,97.19
2018-12-27T02:00:33.429Z,97.08
2018-12-27T02:01:33.415Z,97.60
2018-12-27T02:02:33.412Z,97.50
2018-12-27T02:03:33.394Z,97.39
2018-12-27T02:04:33.383Z,97.60
2018-12-27T02:05:33.372Z,97.50
2018-12-27T02:06:33.362Z,97.50
2018-12-27T02:07:33.359Z,97.60
2018-12-27T02:08:33.339Z,97.60
2018-12-27T02:09:33.332Z,97.60
2018-12-27T02:10:33.318Z,97.60
2018-12-27T02:11:33.309Z,97.39
2018-12-27T02:12:33.326Z,97.08
2018-12-27T02:13:33.284Z,97.50
2018-12-27T02:14:33.275Z,97.60
2018-12-27T02:15:33.266Z,97.81
2018-12-27T02:16:33.252Z,97.19
2018-12-27T02:17:33.244Z,97.60
2018-12-27T02:18:33.238Z,97.50
2018-12-27T02:19:33.220Z,97.08
2018-12-27T02:20:33.209Z,96.67
2018-12-27T02:21:33.202Z,96.67
2018-12-27T02:22:33.192Z,96.67
2018-12-27T02:23:33.185Z,96.98
2018-12-27T02:24:33.166Z,96.77
2018-12-27T02:25:33.154Z,96.56
2018-12-27T02:26:33.142Z,96.56
2018-12-27T02:27:33.140Z,96.41
2018-12-27T02:28:33.129Z,96.47
2018-12-27T02:29:33.110Z,96.26
2018-12-27T02:30:33.106Z,96.77
2018-12-27T02:31:33.091Z,96.56
2018-12-27T02:32:33.079Z,96.67
2018-12-27T02:33:35.589Z,96.36
2018-12-27T02:34:33.058Z,96.47
2018-12-27T02:35:33.058Z,96.67
2018-12-27T02:36:33.036Z,96.77
2018-12-27T02:37:33.025Z,96.47
2018-12-27T02:38:33.025Z,96.36
2018-12-27T02:39:33.008Z,95.74
2018-12-27T02:40:32.993Z,96.05
2018-12-27T02:41:32.982Z,95.74
2018-12-27T02:42:32.969Z,95.95
2018-12-27T02:43:32.972Z,96.15
2018-12-27T02:44:32.951Z,95.84
2018-12-27T02:45:32.937Z,95.43
2018-12-27T02:46:32.931Z,95.64
2018-12-27T02:47:32.917Z,96.15
2018-12-27T02:48:32.916Z,95.43
2018-12-27T02:49:32.912Z,95.43
2018-12-27T02:50:32.893Z,95.64
2018-12-27T02:51:32.875Z,95.53
2018-12-27T02:52:32.862Z,94.92
2018-12-27T02:53:32.852Z,94.96
2018-12-27T02:54:32.853Z,95.43
2018-12-27T02:55:32.844Z,94.96
2018-12-27T02:56:32.826Z,95.95
2018-12-27T02:57:32.809Z,95.95
2018-12-27T02:58:32.804Z,94.92
2018-12-27T02:59:32.797Z,94.54
2018-12-27T03:00:32.784Z,94.81
2018-12-27T03:01:32.767Z,95.32
2018-12-27T03:02:32.755Z,94.81
2018-12-27T03:03:32.746Z,94.71
2018-12-27T03:04:32.743Z,94.96
2018-12-27T03:05:32.723Z,94.96
2018-12-27T03:06:32.712Z,95.06
2018-12-27T03:07:32.701Z,94.54
2018-12-27T03:08:32.693Z,95.78
2018-12-27T03:09:32.694Z,95.17
2018-12-27T03:10:32.669Z,95.06
2018-12-27T03:11:32.662Z,95.17
2018-12-27T03:12:32.650Z,94.92
2018-12-27T03:13:32.644Z,94.54
2018-12-27T03:14:32.637Z,94.34
2018-12-27T03:15:32.617Z,94.85
2018-12-27T03:16:32.605Z,94.54
2018-12-27T03:17:32.596Z,94.54
2018-12-27T03:18:32.584Z,94.75
2018-12-27T03:19:32.587Z,94.65
2018-12-27T03:20:32.563Z,94.85
2018-12-27T03:21:32.553Z,94.54
2018-12-27T03:22:32.541Z,94.85
2018-12-27T03:23:32.531Z,94.44
2018-12-27T03:24:32.528Z,94.85
2018-12-27T03:25:32.508Z,94.75
2018-12-27T03:26:32.507Z,94.85
2018-12-27T03:27:32.487Z,94.85
2018-12-27T03:28:32.477Z,94.85
2018-12-27T03:29:32.481Z,94.85
2018-12-27T03:30:32.456Z,95.06
2018-12-27T03:31:32.448Z,94.75
2018-12-27T03:32:32.435Z,94.96
2018-12-27T03:33:32.423Z,94.96
2018-12-27T03:34:32.442Z,94.96
2018-12-27T03:35:32.403Z,94.85
2018-12-27T03:36:32.391Z,94.75
2018-12-27T03:37:32.382Z,94.65
2018-12-27T03:38:32.371Z,95.06
2018-12-27T03:39:32.360Z,95.06
2018-12-27T03:40:32.357Z,94.75
2018-12-27T03:41:32.339Z,95.06
2018-12-27T03:42:32.329Z,95.17
2018-12-27T03:43:32.317Z,95.06
2018-12-27T03:44:32.307Z,94.75
2018-12-27T03:45:32.308Z,94.85
2018-12-27T03:46:32.284Z,94.65
2018-12-27T03:47:32.275Z,94.85
2018-12-27T03:48:32.265Z,95.06
2018-12-27T03:49:32.253Z,93.93
2018-12-27T03:50:32.250Z,94.65
2018-12-27T03:51:32.232Z,94.69
2018-12-27T03:52:32.220Z,94.13
2018-12-27T03:53:32.210Z,94.18
2018-12-27T03:54:32.202Z,94.03
2018-12-27T03:55:32.197Z,94.28
2018-12-27T03:56:32.181Z,93.82
2018-12-27T03:57:32.167Z,93.72
2018-12-27T03:58:32.157Z,93.82
2018-12-27T03:59:32.147Z,94.13
2018-12-27T04:00:32.144Z,93.41
2018-12-27T04:01:32.124Z,93.66
2018-12-27T04:02:32.116Z,93.72
2018-12-27T04:03:32.103Z,93.93
2018-12-27T04:04:32.094Z,93.93
2018-12-27T04:05:32.090Z,93.97
2018-12-27T04:06:32.071Z,94.28
2018-12-27T04:07:32.064Z,93.97
2018-12-27T04:08:32.051Z,93.66
2018-12-27T04:09:32.040Z,93.76
2018-12-27T04:10:32.058Z,93.66
2018-12-27T04:11:32.017Z,93.87
2018-12-27T04:12:32.009Z,93.66
2018-12-27T04:13:31.996Z,93.76
2018-12-27T04:14:31.987Z,93.35
2018-12-27T04:15:31.974Z,93.66
2018-12-27T04:16:31.978Z,93.76
2018-12-27T04:17:31.955Z,93.66
2018-12-27T04:18:31.944Z,93.35
2018-12-27T04:19:31.933Z,93.76
2018-12-27T04:20:31.924Z,93.76
2018-12-27T04:21:31.921Z,93.35
2018-12-27T04:22:31.900Z,92.93
2018-12-27T04:23:31.890Z,93.45
2018-12-27T04:24:31.884Z,93.76
2018-12-27T04:25:31.869Z,93.76
2018-12-27T04:26:31.869Z,93.55
2018-12-27T04:27:31.848Z,93.66
2018-12-27T04:28:31.836Z,93.76
2018-12-27T04:29:31.827Z,94.18
2018-12-27T04:30:31.814Z,93.55
2018-12-27T04:31:31.829Z,93.87
2018-12-27T04:32:31.796Z,93.55
2018-12-27T04:33:31.782Z,93.45
2018-12-27T04:34:31.772Z,94.28
2018-12-27T04:35:31.766Z,94.18
2018-12-27T04:36:31.759Z,93.55
2018-12-27T04:37:31.746Z,93.66
2018-12-27T04:38:31.729Z,93.04
2018-12-27T04:39:31.719Z,93.97
2018-12-27T04:40:31.711Z,93.76
2018-12-27T04:41:31.705Z,93.66
2018-12-27T04:42:31.686Z,93.45
2018-12-27T04:43:31.675Z,93.97
2018-12-27T04:44:31.664Z,93.35
2018-12-27T04:45:31.662Z,93.35
2018-12-27T04:46:31.679Z,93.14
2018-12-27T04:47:31.634Z,93.87
2018-12-27T04:48:31.622Z,93.76
2018-12-27T04:49:31.610Z,93.35
2018-12-27T04:50:31.602Z,92.72
2018-12-27T04:51:31.591Z,93.35
2018-12-27T04:52:31.598Z,93.24
2018-12-27T04:53:31.569Z,93.87
2018-12-27T04:54:31.561Z,93.14
2018-12-27T04:55:31.547Z,93.14
2018-12-27T04:56:31.535Z,93.55
2018-12-27T04:57:31.537Z,93.55
2018-12-27T04:58:31.516Z,93.35
2018-12-27T04:59:31.505Z,93.35
2018-12-27T05:00:31.498Z,93.24
2018-12-27T05:01:31.482Z,93.45
2018-12-27T05:02:31.479Z,93.04
2018-12-27T05:03:31.460Z,93.76
2018-12-27T05:04:31.452Z,93.45
2018-12-27T05:05:31.445Z,93.04
2018-12-27T05:06:31.429Z,93.04
2018-12-27T05:07:31.426Z,92.93
2018-12-27T05:08:31.409Z,92.83
2018-12-27T05:09:31.399Z,93.45
2018-12-27T05:10:31.392Z,93.24
2018-12-27T05:11:31.376Z,93.35
2018-12-27T05:12:31.372Z,93.66
2018-12-27T05:13:31.354Z,93.76
2018-12-27T05:14:31.345Z,93.45
2018-12-27T05:15:31.341Z,93.14
2018-12-27T05:16:31.323Z,93.87
2018-12-27T05:17:31.321Z,92.83
2018-12-27T05:18:31.303Z,93.45
2018-12-27T05:19:31.289Z,93.45
2018-12-27T05:20:31.280Z,93.66
2018-12-27T05:21:31.269Z,93.66
2018-12-27T05:22:31.277Z,93.76
2018-12-27T05:23:31.250Z,94.07
2018-12-27T05:24:31.236Z,94.28
2018-12-27T05:25:31.226Z,93.97
2018-12-27T05:26:31.214Z,93.97
2018-12-27T05:27:31.239Z,94.48
2018-12-27T05:28:31.196Z,95.21
2018-12-27T05:29:31.184Z,94.07
2018-12-27T05:30:31.172Z,95.10
2018-12-27T05:31:31.160Z,94.69
2018-12-27T05:32:31.150Z,94.90
2018-12-27T05:33:31.150Z,93.97
2018-12-27T05:34:31.128Z,94.18
2018-12-27T05:35:31.118Z,94.90
2018-12-27T05:36:31.111Z,93.87
2018-12-27T05:37:31.096Z,94.07
2018-12-27T05:38:31.094Z,93.97
2018-12-27T05:39:31.079Z,93.24
2018-12-27T05:40:31.064Z,93.87
2018-12-27T05:41:31.054Z,93.76
2018-12-27T05:42:31.043Z,93.66
2018-12-27T05:43:31.041Z,93.97
2018-12-27T05:44:31.024Z,93.45
2018-12-27T05:45:31.015Z,93.70
2018-12-27T05:46:31.000Z,93.66
2018-12-27T05:47:30.989Z,93.76
2018-12-27T05:48:30.986Z,92.97
2018-12-27T05:49:30.970Z,92.83
2018-12-27T05:50:30.961Z,93.04
2018-12-27T05:51:30.947Z,92.67
2018-12-27T05:52:30.937Z,92.46
2018-12-27T05:53:30.934Z,92.87
2018-12-27T05:54:30.916Z,92.36
2018-12-27T05:55:34.445Z,92.67
2018-12-27T05:56:30.894Z,92.25
2018-12-27T05:57:30.882Z,92.21
2018-12-27T05:58:30.901Z,92.11
2018-12-27T05:59:30.864Z,91.84
2018-12-27T06:00:30.851Z,92.15
2018-12-27T06:01:30.841Z,92.21
2018-12-27T06:02:30.830Z,92.11
2018-12-27T06:03:30.819Z,92.00
2018-12-27T06:04:33.981Z,92.32
2018-12-27T06:05:30.797Z,92.46
2018-12-27T06:06:30.789Z,91.63
2018-12-27T06:07:30.778Z,91.42
2018-12-27T06:08:30.768Z,91.94
2018-12-27T06:09:30.764Z,91.74
2018-12-27T06:10:30.743Z,91.84
2018-12-27T06:11:30.732Z,91.42
2018-12-27T06:12:30.725Z,91.74
2018-12-27T06:13:30.711Z,91.11
2018-12-27T06:14:30.710Z,91.01
2018-12-27T06:15:30.692Z,90.60
2018-12-27T06:16:30.683Z,91.63
2018-12-27T06:17:30.670Z,91.22
2018-12-27T06:18:30.658Z,90.50
2018-12-27T06:19:30.656Z,90.80
2018-12-27T06:20:30.640Z,90.80
2018-12-27T06:21:30.626Z,92.15
2018-12-27T06:22:30.616Z,91.42
2018-12-27T06:23:30.605Z,90.19
2018-12-27T06:24:30.605Z,90.39
2018-12-27T06:25:30.589Z,90.64
2018-12-27T06:26:30.574Z,91.78
2018-12-27T06:27:30.563Z,91.47
2018-12-27T06:28:30.553Z,90.64
2018-12-27T06:29:30.549Z,91.26
2018-12-27T06:30:30.535Z,90.74
2018-12-27T06:31:30.520Z,90.44
2018-12-27T06:32:30.510Z,90.53
2018-12-27T06:33:30.498Z,89.81
2018-12-27T06:34:30.496Z,89.40
2018-12-27T06:35:30.479Z,89.40
2018-12-27T06:36:30.466Z,90.74
2018-12-27T06:37:30.456Z,89.61
2018-12-27T06:38:30.446Z,90.02
2018-12-27T06:39:30.448Z,90.95
2018-12-27T06:40:30.424Z,89.61
2018-12-27T06:41:30.416Z,90.84
2018-12-27T06:42:30.402Z,90.23
2018-12-27T06:43:30.392Z,90.64
2018-12-27T06:44:30.674Z,90.53
2018-12-27T06:45:30.370Z,90.23
2018-12-27T06:46:30.360Z,90.16
2018-12-27T06:47:30.349Z,90.06
2018-12-27T06:48:30.338Z,90.12
2018-12-27T06:49:30.328Z,89.75
2018-12-27T06:50:30.324Z,90.23
2018-12-27T06:51:30.306Z,90.44
2018-12-27T06:52:30.295Z,90.74
2018-12-27T06:53:30.285Z,90.74
2018-12-27T06:54:30.276Z,90.74
2018-12-27T06:55:30.271Z,91.99
2018-12-27T06:56:30.254Z,90.64
2018-12-27T06:57:30.242Z,91.16
2018-12-27T06:58:37.577Z,90.58
2018-12-27T06:59:31.219Z,90.47
2018-12-27T07:00:30.218Z,90.02
2018-12-27T07:01:30.200Z,90.12
2018-12-27T07:02:30.189Z,90.58
2018-12-27T07:03:30.181Z,89.54
2018-12-27T07:04:30.168Z,90.02
2018-12-27T07:05:30.166Z,90.26
2018-12-27T07:06:30.146Z,90.64
2018-12-27T07:07:30.134Z,90.89
2018-12-27T07:08:30.124Z,91.26
2018-12-27T07:09:30.117Z,90.26
2018-12-27T07:10:30.111Z,90.58
2018-12-27T07:11:30.093Z,89.86
2018-12-27T07:12:30.084Z,90.37
2018-12-27T07:13:30.071Z,89.86
2018-12-27T07:14:30.061Z,89.86
2018-12-27T07:15:30.058Z,89.75
2018-12-27T07:16:30.039Z,90.31
2018-12-27T07:17:30.029Z,90.20
2018-12-27T07:18:30.018Z,90.00
2018-12-27T07:19:30.008Z,90.72
2018-12-27T07:20:30.006Z,90.72
2018-12-27T07:21:29.986Z,90.97
2018-12-27T07:22:29.975Z,90.04
2018-12-27T07:23:29.964Z,90.35
2018-12-27T07:24:29.955Z,90.56
2018-12-27T07:25:29.952Z,89.73
2018-12-27T07:26:29.934Z,89.83
2018-12-27T07:27:29.920Z,90.35
2018-12-27T07:28:29.911Z,90.77
2018-12-27T07:29:29.900Z,90.66
2018-12-27T07:30:29.915Z,90.87
2018-12-27T07:31:29.878Z,90.77
2018-12-27T07:32:29.866Z,89.94
2018-12-27T07:33:29.858Z,89.94
2018-12-27T07:34:29.846Z,89.21
2018-12-27T07:35:29.834Z,89.00
2018-12-27T07:36:29.834Z,90.14
2018-12-27T07:37:29.812Z,90.66
2018-12-27T07:38:29.802Z,90.66
2018-12-27T07:39:29.791Z,91.28
2018-12-27T07:40:29.780Z,90.35
2018-12-27T07:41:29.781Z,90.77
2018-12-27T07:42:29.760Z,89.83
2018-12-27T07:43:29.748Z,89.94
2018-12-27T07:44:29.741Z,90.66
2018-12-27T07:45:29.726Z,90.66
2018-12-27T07:46:29.725Z,89.83
2018-12-27T07:47:29.704Z,90.14
2018-12-27T07:48:29.694Z,89.42
2018-12-27T07:49:29.682Z,89.31
2018-12-27T07:50:29.672Z,88.79
2018-12-27T07:51:29.669Z,89.11
2018-12-27T07:52:29.650Z,88.39
2018-12-27T07:53:29.642Z,87.35
2018-12-27T07:54:29.628Z,86.47
2018-12-27T07:55:29.618Z,87.30
2018-12-27T07:56:29.617Z,85.86
2018-12-27T07:57:29.598Z,85.55
2018-12-27T07:58:29.587Z,85.48
2018-12-27T07:59:29.584Z,85.48
2018-12-27T08:00:29.564Z,85.44
2018-12-27T08:01:29.563Z,85.48
2018-12-27T08:02:29.542Z,86.00
2018-12-27T08:03:29.534Z,86.10
2018-12-27T08:04:29.521Z,85.86
2018-12-27T08:05:29.510Z,85.89
2018-12-27T08:06:29.510Z,86.00
2018-12-27T08:07:29.488Z,85.58
2018-12-27T08:08:29.498Z,84.96
2018-12-27T08:09:29.467Z,85.17
2018-12-27T08:10:29.456Z,84.96
2018-12-27T08:11:29.462Z,85.06
2018-12-27T08:12:29.435Z,86.21
2018-12-27T08:13:29.428Z,86.62
2018-12-27T08:14:29.414Z,86.10
2018-12-27T08:15:29.403Z,86.00
2018-12-27T08:16:29.432Z,86.31
2018-12-27T08:17:29.383Z,85.79
2018-12-27T08:18:29.372Z,87.55
2018-12-27T08:19:29.360Z,86.31
2018-12-27T08:20:29.352Z,86.31
2018-12-27T08:21:29.337Z,86.10
2018-12-27T08:22:29.336Z,85.48
2018-12-27T08:23:29.319Z,85.69
2018-12-27T08:24:29.306Z,87.04
2018-12-27T08:25:29.295Z,85.58
2018-12-27T08:26:29.284Z,86.31
2018-12-27T08:27:29.281Z,86.41
2018-12-27T08:28:29.265Z,87.04
2018-12-27T08:29:29.255Z,87.24
2018-12-27T08:30:29.242Z,87.55
2018-12-27T08:31:29.233Z,87.87
2018-12-27T08:32:29.233Z,88.28
2018-12-27T08:33:29.208Z,87.35
2018-12-27T08:34:29.197Z,86.93
2018-12-27T08:35:29.187Z,86.93
2018-12-27T08:36:29.241Z,88.69
2018-12-27T08:37:29.181Z,86.83
2018-12-27T08:38:29.165Z,87.80
2018-12-27T08:39:29.145Z,86.97
2018-12-27T08:40:29.134Z,87.76
2018-12-27T08:41:29.122Z,87.66
2018-12-27T08:42:29.121Z,88.79
2018-12-27T08:43:29.101Z,88.28
2018-12-27T08:44:29.091Z,87.87
2018-12-27T08:45:29.079Z,87.87
2018-12-27T08:46:29.068Z,87.87
2018-12-27T08:47:29.066Z,87.66
2018-12-27T08:48:29.050Z,87.35
2018-12-27T08:49:29.036Z,87.97
2018-12-27T08:50:29.025Z,88.59
2018-12-27T08:51:29.016Z,88.59
2018-12-27T08:52:29.011Z,87.87
2018-12-27T08:53:28.993Z,88.07
2018-12-27T08:54:28.983Z,88.28
2018-12-27T08:55:28.971Z,88.07
2018-12-27T08:56:28.963Z,88.59
2018-12-27T08:57:28.980Z,88.28
2018-12-27T08:58:28.939Z,88.79
2018-12-27T08:59:28.930Z,89.11
2018-12-27T09:00:28.920Z,88.48
2018-12-27T09:01:28.918Z,89.42
2018-12-27T09:02:28.908Z,89.21
2018-12-27T09:03:28.907Z,89.31
2018-12-27T09:04:28.874Z,89.00
2018-12-27T09:05:28.865Z,88.90
2018-12-27T09:06:28.852Z,89.21
2018-12-27T09:07:28.842Z,89.21
2018-12-27T09:08:28.839Z,89.73
2018-12-27T09:09:28.821Z,90.14
2018-12-27T09:10:28.809Z,90.14
2018-12-27T09:11:28.801Z,89.83
2018-12-27T09:12:28.788Z,89.11
2018-12-27T09:13:28.785Z,89.52
2018-12-27T09:14:28.766Z,90.25
2018-12-27T09:15:28.754Z,90.04
2018-12-27T09:16:28.766Z,90.45
2018-12-27T09:17:28.739Z,90.25
2018-12-27T09:18:28.754Z,90.04
2018-12-27T09:19:28.711Z,89.94
2018-12-27T09:20:28.702Z,89.94
2018-12-27T09:21:28.689Z,89.52
2018-12-27T09:22:28.684Z,89.52
2018-12-27T09:23:28.677Z,89.94
2018-12-27T09:24:28.657Z,90.14
2018-12-27T09:25:28.654Z,90.56
2018-12-27T09:26:28.643Z,90.52
2018-12-27T09:27:28.627Z,90.25
2018-12-27T09:28:28.622Z,90.04
2018-12-27T09:29:28.608Z,90.20
2018-12-27T09:30:28.606Z,90.66
2018-12-27T09:31:28.580Z,90.62
2018-12-27T09:32:28.571Z,90.35
2018-12-27T09:33:28.569Z,90.62
2018-12-27T09:34:28.549Z,90.52
2018-12-27T09:35:28.537Z,90.52
2018-12-27T09:36:28.528Z,90.66
2018-12-27T09:37:28.516Z,90.25
2018-12-27T09:38:28.530Z,90.62
2018-12-27T09:39:28.495Z,91.35
2018-12-27T09:40:28.484Z,90.62
2018-12-27T09:41:28.474Z,91.03
2018-12-27T09:42:28.462Z,90.35
2018-12-27T09:43:28.478Z,90.66
2018-12-27T09:44:28.440Z,91.08
2018-12-27T09:45:28.434Z,91.55
2018-12-27T09:46:28.448Z,90.41
2018-12-27T09:47:28.407Z,90.87
2018-12-27T09:48:28.396Z,90.77
2018-12-27T09:49:28.396Z,92.22
2018-12-27T09:50:28.378Z,92.11
2018-12-27T09:51:28.364Z,91.08
2018-12-27T09:52:28.353Z,91.24
2018-12-27T09:53:28.343Z,92.07
2018-12-27T09:54:28.341Z,91.66
2018-12-27T09:55:28.322Z,91.39
2018-12-27T09:56:28.314Z,92.07
2018-12-27T09:57:28.300Z,91.97
2018-12-27T09:58:28.289Z,92.07
2018-12-27T09:59:28.292Z,92.18
2018-12-27T10:00:28.266Z,92.01
2018-12-27T10:01:28.256Z,92.18
2018-12-27T10:02:28.245Z,92.18
2018-12-27T10:03:28.234Z,92.18
2018-12-27T10:04:28.232Z,92.28
2018-12-27T10:05:33.776Z,91.97
2018-12-27T10:06:29.202Z,92.43
2018-12-27T10:07:28.192Z,92.18
2018-12-27T10:08:28.181Z,92.18
2018-12-27T10:09:28.219Z,92.59
2018-12-27T10:10:28.159Z,92.59
2018-12-27T10:11:28.152Z,92.80
2018-12-27T10:12:28.137Z,92.28
2018-12-27T10:13:28.130Z,92.80
2018-12-27T10:14:28.117Z,93.00
2018-12-27T10:15:28.135Z,92.49
2018-12-27T10:16:28.094Z,92.90
2018-12-27T10:17:28.084Z,93.31
2018-12-27T10:18:28.078Z,93.31
2018-12-27T10:19:28.068Z,92.96
2018-12-27T10:20:28.060Z,92.69
2018-12-27T10:21:28.040Z,93.00
2018-12-27T10:22:28.030Z,92.24
2018-12-27T10:23:28.022Z,92.44
2018-12-27T10:24:28.016Z,92.55
2018-12-27T10:25:28.008Z,93.06
2018-12-27T10:26:27.987Z,92.28
2018-12-27T10:27:27.975Z,92.85
2018-12-27T10:28:27.968Z,92.44
2018-12-27T10:29:28.115Z,92.55
2018-12-27T10:30:27.955Z,93.31
2018-12-27T10:31:27.933Z,93.00
2018-12-27T10:32:27.924Z,93.73
2018-12-27T10:33:27.913Z,92.96
2018-12-27T10:34:27.904Z,93.16
2018-12-27T10:35:27.904Z,92.24
2018-12-27T10:36:27.880Z,93.06
2018-12-27T10:37:27.874Z,92.96
2018-12-27T10:38:27.890Z,92.55
2018-12-27T10:39:27.847Z,92.85
2018-12-27T10:40:27.848Z,93.06
2018-12-27T10:41:27.827Z,92.55
2018-12-27T10:42:27.817Z,92.76
2018-12-27T10:43:27.819Z,93.06
2018-12-27T10:44:27.797Z,92.96
2018-12-27T10:45:27.810Z,92.55
2018-12-27T10:46:27.776Z,92.96
2018-12-27T10:47:27.763Z,92.55
2018-12-27T10:48:27.751Z,92.65
2018-12-27T10:49:27.741Z,92.44
2018-12-27T10:50:27.732Z,92.24
2018-12-27T10:51:27.726Z,93.27
2018-12-27T10:52:27.710Z,92.76
2018-12-27T10:53:27.703Z,92.55
2018-12-27T10:54:27.687Z,92.50
2018-12-27T10:55:27.673Z,92.85
2018-12-27T10:56:27.671Z,92.55
2018-12-27T10:57:27.660Z,92.76
2018-12-27T10:58:27.641Z,92.40
2018-12-27T10:59:27.630Z,92.71
2018-12-27T11:00:27.620Z,92.24
2018-12-27T11:01:27.618Z,92.24
2018-12-27T11:02:27.600Z,92.13
2018-12-27T11:03:30.732Z,93.02
2018-12-27T11:04:27.579Z,92.96
2018-12-27T11:05:27.566Z,92.91
2018-12-27T11:06:27.564Z,92.13
2018-12-27T11:07:27.545Z,92.50
2018-12-27T11:08:27.535Z,92.50
2018-12-27T11:09:27.524Z,92.61
2018-12-27T11:10:27.514Z,92.50
2018-12-27T11:11:27.514Z,91.99
2018-12-27T11:12:27.492Z,91.88
2018-12-27T11:13:27.483Z,92.25
2018-12-27T11:14:27.471Z,91.94
2018-12-27T11:15:27.460Z,92.05
2018-12-27T11:16:27.457Z,91.42
2018-12-27T11:17:27.439Z,91.94
2018-12-27T11:18:28.464Z,91.42
2018-12-27T11:19:27.418Z,91.63
2018-12-27T11:20:27.406Z,91.99
2018-12-27T11:21:27.423Z,91.94
2018-12-27T11:22:27.389Z,92.05
2018-12-27T11:23:27.375Z,91.88
2018-12-27T11:24:27.364Z,90.95
2018-12-27T11:25:27.357Z,91.99
2018-12-27T11:26:27.343Z,92.09
2018-12-27T11:27:27.339Z,92.19
2018-12-27T11:28:27.321Z,92.19
2018-12-27T11:29:27.311Z,92.40
2018-12-27T11:30:27.299Z,92.50
2018-12-27T11:31:27.288Z,92.30
2018-12-27T11:32:27.286Z,92.30
2018-12-27T11:33:27.268Z,91.94
2018-12-27T11:34:27.255Z,92.05
2018-12-27T11:35:27.246Z,91.88
2018-12-27T11:36:27.234Z,91.74
2018-12-27T11:37:27.233Z,91.57
2018-12-27T11:38:27.216Z,92.50
2018-12-27T11:39:27.202Z,91.74
2018-12-27T11:40:27.193Z,92.05
2018-12-27T11:41:27.183Z,91.88
2018-12-27T11:42:27.179Z,91.99
2018-12-27T11:43:27.168Z,92.30
2018-12-27T11:44:27.149Z,92.36
2018-12-27T11:45:27.139Z,92.91
2018-12-27T11:46:27.127Z,93.12
2018-12-27T11:47:27.127Z,92.19
2018-12-27T11:48:27.106Z,91.94
2018-12-27T11:49:27.095Z,92.25
2018-12-27T11:50:27.087Z,92.25
2018-12-27T11:51:27.077Z,91.94
2018-12-27T11:52:27.099Z,92.30
2018-12-27T11:53:27.052Z,91.67
2018-12-27T11:54:27.043Z,92.46
2018-12-27T11:55:27.031Z,92.19
2018-12-27T11:56:27.023Z,92.40
2018-12-27T11:57:27.009Z,92.50
2018-12-27T11:58:27.006Z,92.91
2018-12-27T11:59:26.988Z,93.23
2018-12-27T12:00:26.977Z,92.81
2018-12-27T12:01:26.971Z,93.23
2018-12-27T12:02:31.029Z,92.50
2018-12-27T12:03:26.954Z,92.71
2018-12-27T12:04:26.935Z,92.61
2018-12-27T12:05:26.923Z,92.50
2018-12-27T12:06:26.912Z,92.71
2018-12-27T12:07:26.902Z,93.43
2018-12-27T12:08:26.901Z,93.39
2018-12-27T12:09:26.881Z,93.12
2018-12-27T12:10:26.869Z,93.85
2018-12-27T12:11:26.860Z,93.12
2018-12-27T12:12:26.848Z,93.33
2018-12-27T12:13:26.847Z,93.49
2018-12-27T12:14:26.827Z,93.74
2018-12-27T12:15:26.819Z,93.91
2018-12-27T12:16:26.856Z,93.95
2018-12-27T12:17:26.794Z,94.16
2018-12-27T12:18:26.792Z,93.43
2018-12-27T12:19:26.775Z,93.70
2018-12-27T12:20:26.765Z,93.60
2018-12-27T12:21:26.752Z,93.64
2018-12-27T12:22:26.741Z,94.01
2018-12-27T12:23:26.739Z,93.74
2018-12-27T12:24:26.720Z,93.85
2018-12-27T12:25:26.710Z,93.70
2018-12-27T12:26:26.708Z,93.80
2018-12-27T12:27:26.687Z,93.80
2018-12-27T12:28:26.685Z,93.64
2018-12-27T12:29:26.669Z,93.54
2018-12-27T12:30:26.657Z,94.37
2018-12-27T12:31:26.648Z,94.16
2018-12-27T12:32:26.633Z,94.06
2018-12-27T12:33:26.632Z,95.09
2018-12-27T12:34:26.613Z,94.63
2018-12-27T12:35:26.604Z,94.53
2018-12-27T12:36:26.590Z,94.53
2018-12-27T12:37:26.579Z,94.63
2018-12-27T12:38:26.570Z,94.12
2018-12-27T12:39:26.566Z,94.94
2018-12-27T12:40:26.549Z,95.15
2018-12-27T12:41:26.536Z,94.12
2018-12-27T12:42:33.010Z,94.12
2018-12-27T12:43:27.515Z,94.98
2018-12-27T12:44:26.514Z,94.63
2018-12-27T12:45:26.493Z,95.15
2018-12-27T12:46:26.481Z,94.84
2018-12-27T12:47:26.481Z,94.94
2018-12-27T12:48:26.461Z,94.73
2018-12-27T12:49:26.458Z,94.43
2018-12-27T12:50:26.439Z,94.73
2018-12-27T12:51:26.428Z,94.94
2018-12-27T12:52:26.418Z,94.32